createdAt,value
2024-05-09T00:00:55.830Z,100099.88
2024-05-09T00:06:00.689Z,100092.81
2024-05-09T00:11:08.295Z,100081.50
2024-05-09T00:16:13.037Z,100089.06
2024-05-09T00:21:17.738Z,100086.84
2024-05-09T00:26:25.140Z,100083.56
2024-05-09T00:31:29.979Z,100086.03
2024-05-09T00:36:34.723Z,100087.06
2024-05-09T00:41:42.067Z,100094.03
2024-05-09T00:46:47.074Z,100095.28
2024-05-09T00:51:52.792Z,100090.44
2024-05-09T00:57:00.214Z,100084.66
2024-05-09T01:02:05.065Z,100084.09
2024-05-09T01:07:10.148Z,100092.38
2024-05-09T01:12:17.532Z,100086.56
2024-05-09T01:17:22.562Z,100079.19
2024-05-09T01:22:31.139Z,100078.00
2024-05-09T01:27:38.458Z,100084.94
2024-05-09T01:32:43.620Z,100083.59
2024-05-09T01:37:48.618Z,100082.97
2024-05-09T01:42:55.872Z,100086.94
2024-05-09T01:48:01.018Z,100091.69
2024-05-09T01:53:06.205Z,100092.81
2024-05-09T01:58:13.589Z,100088.72
2024-05-09T02:03:18.685Z,100092.63
2024-05-09T02:08:24.012Z,100095.13
2024-05-09T02:13:31.308Z,100093.13
2024-05-09T02:18:35.985Z,100093.25
2024-05-09T02:23:40.656Z,100103.19
2024-05-09T02:28:48.085Z,100104.47
2024-05-09T02:33:52.931Z,100099.53
2024-05-09T02:38:57.731Z,100095.69
2024-05-09T02:44:05.106Z,100096.34
2024-05-09T02:49:09.968Z,100094.28
2024-05-09T02:54:14.693Z,100099.44
2024-05-09T02:59:22.126Z,100100.66
2024-05-09T03:04:26.940Z,100099.13
2024-05-09T03:09:31.649Z,100097.06
2024-05-09T03:14:38.988Z,100092.66
2024-05-09T03:19:43.657Z,100101.31
2024-05-09T03:24:48.301Z,100095.22
2024-05-09T03:29:55.643Z,100095.13
2024-05-09T03:35:00.543Z,100101.34
2024-05-09T03:40:09.277Z,100092.91
2024-05-09T03:45:19.630Z,100098.63
2024-05-09T03:50:30.165Z,100100.59
2024-05-09T03:55:39.080Z,100104.66
2024-05-09T04:00:46.463Z,100098.47
2024-05-09T04:05:51.177Z,100097.38
2024-05-09T04:10:56.108Z,100092.53
2024-05-09T04:16:03.429Z,100105.16
2024-05-09T04:21:09.138Z,100105.22
2024-05-09T04:26:14.101Z,100107.19
2024-05-09T04:31:21.468Z,100114.22
2024-05-09T04:36:26.149Z,100119.97
2024-05-09T04:41:30.905Z,100115.09
2024-05-09T04:46:39.678Z,100120.13
2024-05-09T04:51:44.534Z,100123.97
2024-05-09T04:56:49.196Z,100116.78
2024-05-09T05:01:56.687Z,100127.25
2024-05-09T05:07:02.809Z,100123.72
2024-05-09T05:12:28.424Z,100121.66
2024-05-09T05:17:36.026Z,100122.53
2024-05-09T05:22:43.156Z,100126.69
2024-05-09T05:27:47.812Z,100121.19
2024-05-09T05:32:55.242Z,100119.59
2024-05-09T05:38:00.002Z,100120.53
2024-05-09T05:43:04.722Z,100113.81
2024-05-09T05:48:12.590Z,100126.38
2024-05-09T05:53:17.412Z,100128.97
2024-05-09T05:58:22.581Z,100125.47
2024-05-09T06:03:30.448Z,100125.56
2024-05-09T06:08:35.227Z,100130.25
2024-05-09T06:13:39.988Z,100131.28
2024-05-09T06:18:47.524Z,100137.00
2024-05-09T06:23:53.448Z,100137.56
2024-05-09T06:28:58.796Z,100138.47
2024-05-09T06:34:06.196Z,100137.50
2024-05-09T06:39:11.105Z,100140.63
2024-05-09T06:44:15.906Z,100136.38
2024-05-09T06:49:23.355Z,100137.75
2024-05-09T06:54:29.131Z,100147.53
2024-05-09T06:59:33.899Z,100135.03
2024-05-09T07:04:41.235Z,100128.78
2024-05-09T07:09:46.362Z,100125.19
2024-05-09T07:14:51.054Z,100131.09
2024-05-09T07:19:58.503Z,100134.97
2024-05-09T07:25:03.172Z,100129.69
2024-05-09T07:30:11.506Z,100132.84
2024-05-09T07:35:18.980Z,100137.47
2024-05-09T07:40:32.670Z,100134.19
2024-05-09T07:45:50.460Z,100131.16
2024-05-09T07:53:07.620Z,100128.63
2024-05-09T07:56:26.536Z,100122.31
2024-05-09T08:01:31.717Z,100113.03
2024-05-09T08:06:39.181Z,100115.59
2024-05-09T08:11:44.896Z,100114.94
2024-05-09T08:16:49.634Z,100109.84
2024-05-09T08:21:56.993Z,100105.13
2024-05-09T08:27:01.683Z,100114.84
2024-05-09T08:32:07.989Z,100117.38
2024-05-09T08:37:21.497Z,100118.38
2024-05-09T08:42:31.862Z,100116.28
2024-05-09T08:47:36.726Z,100118.25
2024-05-09T08:52:44.193Z,100111.59
2024-05-09T08:57:49.461Z,100106.19
2024-05-09T09:02:55.338Z,100105.53
2024-05-09T09:08:02.641Z,100096.28
2024-05-09T09:13:09.785Z,100102.59
2024-05-09T09:18:17.826Z,100112.31
2024-05-09T09:23:27.378Z,100107.44
2024-05-09T09:28:32.295Z,100112.16
2024-05-09T09:33:37.801Z,100105.06
2024-05-09T09:38:46.490Z,100105.63
2024-05-09T09:43:51.565Z,100120.03
2024-05-09T09:48:56.442Z,100110.00
2024-05-09T09:54:06.554Z,100104.00
2024-05-09T09:59:12.324Z,100105.66
2024-05-09T10:04:19.028Z,100093.53
2024-05-09T10:09:26.841Z,100098.63
2024-05-09T10:14:34.600Z,100116.91
2024-05-09T10:19:39.357Z,100105.16
2024-05-09T10:24:54.639Z,100102.09
2024-05-09T10:30:01.264Z,100098.41
2024-05-09T10:35:11.666Z,100099.72
2024-05-09T10:40:26.545Z,100091.41
2024-05-09T10:45:38.182Z,100083.72
2024-05-09T10:50:43.874Z,100082.16
2024-05-09T10:56:01.479Z,100090.31
2024-05-09T11:01:07.309Z,100079.22
2024-05-09T11:06:13.633Z,100074.59
2024-05-09T11:11:21.227Z,100061.00
2024-05-09T11:16:26.135Z,100058.63
2024-05-09T11:21:31.075Z,100067.88
2024-05-09T11:26:38.541Z,100059.97
2024-05-09T11:31:48.752Z,100051.47
2024-05-09T11:36:53.764Z,100040.25
2024-05-09T11:42:01.162Z,100028.84
2024-05-09T11:47:07.159Z,100031.72
2024-05-09T11:52:12.028Z,100032.03
2024-05-09T11:57:19.399Z,100034.81
2024-05-09T12:02:24.228Z,100033.47
2024-05-09T12:07:29.236Z,100026.53
2024-05-09T12:12:37.529Z,100018.84
2024-05-09T12:17:42.341Z,100019.25
2024-05-09T12:22:47.613Z,100023.97
2024-05-09T12:27:55.052Z,100006.97
2024-05-09T12:32:59.904Z,100004.22
2024-05-09T12:38:05.040Z,100004.94
2024-05-09T12:43:12.610Z,99996.81
2024-05-09T12:48:17.712Z,99975.38
2024-05-09T12:53:22.501Z,99987.31
2024-05-09T12:58:29.966Z,99983.59
2024-05-09T13:03:34.895Z,99978.34
2024-05-09T13:08:39.745Z,99964.00
2024-05-09T13:13:47.438Z,99956.31
2024-05-09T13:18:52.309Z,99954.16
2024-05-09T13:23:58.333Z,99942.88
2024-05-09T13:29:06.578Z,99944.63
2024-05-09T13:34:11.372Z,99950.56
2024-05-09T13:39:16.102Z,99929.34
2024-05-09T13:44:23.364Z,99930.47
2024-05-09T13:49:28.171Z,99935.34
2024-05-09T13:54:32.961Z,99925.97
2024-05-09T13:59:40.396Z,99911.78
2024-05-09T14:04:45.323Z,99914.75
2024-05-09T14:09:50.149Z,99906.81
2024-05-09T14:14:57.489Z,99912.00
2024-05-09T14:20:02.392Z,99915.28
2024-05-09T14:25:09.464Z,99909.09
2024-05-09T14:30:22.968Z,99900.69
2024-05-09T14:35:35.330Z,99894.19
2024-05-09T14:40:43.589Z,99884.19
2024-05-09T14:45:51.648Z,99879.13
2024-05-09T14:50:56.419Z,99876.28
2024-05-09T14:56:01.161Z,99869.41
2024-05-09T15:01:08.529Z,99866.81
2024-05-09T15:06:13.302Z,99853.84
2024-05-09T15:11:18.033Z,99844.06
2024-05-09T15:16:25.535Z,99848.53
2024-05-09T15:21:30.345Z,99848.31
2024-05-09T15:26:34.994Z,99850.69
2024-05-09T15:31:42.411Z,99846.84
2024-05-09T15:36:51.050Z,99831.19
2024-05-09T15:41:56.462Z,99828.88
2024-05-09T15:47:03.867Z,99826.75
2024-05-09T15:52:08.897Z,99826.69
2024-05-09T15:57:14.156Z,99818.25
2024-05-09T16:02:21.588Z,99814.50
2024-05-09T16:07:26.599Z,99808.22
2024-05-09T16:12:31.310Z,99811.78
2024-05-09T16:17:38.777Z,99802.13
2024-05-09T16:22:44.058Z,99800.66
2024-05-09T16:27:48.895Z,99798.50
2024-05-09T16:32:56.356Z,99807.88
2024-05-09T16:38:01.113Z,99805.53
2024-05-09T16:43:06.646Z,99808.44
2024-05-09T16:48:14.972Z,99806.16
2024-05-09T16:53:21.439Z,99794.75
2024-05-09T16:58:26.612Z,99808.16
2024-05-09T17:03:34.096Z,99799.34
2024-05-09T17:08:40.476Z,99798.78
2024-05-09T17:13:48.177Z,99791.09
2024-05-09T17:18:55.974Z,99789.69
2024-05-09T17:24:00.663Z,99798.16
2024-05-09T17:29:07.281Z,99800.25
2024-05-09T17:34:16.067Z,99796.94
2024-05-09T17:39:20.981Z,99792.34
2024-05-09T17:44:27.044Z,99790.03
2024-05-09T17:49:34.543Z,99793.66
2024-05-09T17:54:39.275Z,99792.34
2024-05-09T17:59:44.055Z,99791.44
2024-05-09T18:04:51.496Z,99783.50
2024-05-09T18:09:56.270Z,99792.97
2024-05-09T18:15:01.958Z,99786.56
2024-05-09T18:20:17.216Z,99781.72
2024-05-09T18:25:24.644Z,99787.56
2024-05-09T18:30:34.734Z,99787.16
2024-05-09T18:35:45.359Z,99786.88
2024-05-09T18:40:50.435Z,99787.75
2024-05-09T18:45:55.256Z,99795.09
2024-05-09T18:51:03.464Z,99797.91
2024-05-09T18:56:09.526Z,99804.31
2024-05-09T19:01:14.423Z,99808.56
2024-05-09T19:06:24.699Z,99812.72
2024-05-09T19:11:29.603Z,99810.81
2024-05-09T19:16:34.415Z,99820.97
2024-05-09T19:21:42.997Z,99815.91
2024-05-09T19:26:47.861Z,99817.94
2024-05-09T19:31:52.746Z,99818.47
2024-05-09T19:37:01.453Z,99820.97
2024-05-09T19:42:06.672Z,99827.81
2024-05-09T19:47:11.458Z,99828.88
2024-05-09T19:52:18.811Z,99832.59
2024-05-09T19:57:23.590Z,99837.16
2024-05-09T20:02:28.508Z,99836.34
2024-05-09T20:07:37.584Z,99842.94
2024-05-09T20:12:42.302Z,99840.28
2024-05-09T20:17:47.377Z,99844.56
2024-05-09T20:22:54.746Z,99841.50
2024-05-09T20:27:59.569Z,99839.47
2024-05-09T20:33:07.064Z,99843.75
2024-05-09T20:38:15.804Z,99842.75
2024-05-09T20:43:20.872Z,99836.59
2024-05-09T20:48:26.135Z,99843.75
2024-05-09T20:53:33.507Z,99842.47
2024-05-09T20:58:38.232Z,99839.38
2024-05-09T21:03:43.945Z,99841.03
2024-05-09T21:08:51.335Z,99842.41
2024-05-09T21:13:56.207Z,99848.31
2024-05-09T21:19:01.001Z,99848.09
2024-05-09T21:24:08.791Z,99853.53
2024-05-09T21:29:13.583Z,99843.22
2024-05-09T21:34:18.383Z,99846.72
2024-05-09T21:39:26.006Z,99846.28
2024-05-09T21:44:30.934Z,99848.78
2024-05-09T21:49:35.690Z,99845.22
2024-05-09T21:54:43.099Z,99847.03
2024-05-09T21:59:47.740Z,99844.72
2024-05-09T22:04:52.497Z,99851.81
2024-05-09T22:10:00.224Z,99848.63
2024-05-09T22:15:05.039Z,99846.97
2024-05-09T22:20:18.088Z,99850.75
2024-05-09T22:25:31.044Z,99851.31
2024-05-09T22:30:39.596Z,99851.88
2024-05-09T22:35:45.378Z,99851.16
2024-05-09T22:40:52.779Z,99842.59
2024-05-09T22:45:57.420Z,99846.34
2024-05-09T22:51:02.099Z,99840.59
2024-05-09T22:56:10.205Z,99845.09
2024-05-09T23:01:17.516Z,99843.53
2024-05-09T23:06:22.464Z,99835.09
2024-05-09T23:11:29.746Z,99839.50
2024-05-09T23:16:34.487Z,99833.34
2024-05-09T23:21:41.252Z,99840.25
2024-05-09T23:26:48.528Z,99842.06
2024-05-09T23:31:53.423Z,99834.97
2024-05-09T23:36:58.113Z,99834.59
2024-05-09T23:42:05.741Z,99827.47
2024-05-09T23:47:11.012Z,99823.09
2024-05-09T23:52:15.980Z,99823.28
2024-05-09T23:57:23.850Z,99823.16
